createdAt,value
2018-07-09T00:00:05.564Z,1.30
2018-07-09T00:00:28.713Z,1.50
2018-07-09T00:00:51.876Z,1.70
2018-07-09T00:01:15.026Z,1.40
2018-07-09T00:01:38.180Z,1.40
2018-07-09T00:02:01.325Z,1.40
2018-07-09T00:02:24.464Z,1.40
2018-07-09T00:02:47.657Z,1.50
2018-07-09T00:03:11.816Z,1.55
2018-07-09T00:03:34.956Z,1.40
2018-07-09T00:03:58.277Z,1.40
2018-07-09T00:04:21.437Z,1.45
2018-07-09T00:04:44.600Z,1.30
2018-07-09T00:05:07.752Z,1.35
2018-07-09T00:05:30.914Z,1.20
2018-07-09T00:05:54.053Z,1.30
2018-07-09T00:06:17.225Z,1.25
2018-07-09T00:06:40.373Z,1.42
2018-07-09T00:07:03.520Z,1.50
2018-07-09T00:07:26.673Z,1.32
2018-07-09T00:07:49.836Z,1.40
2018-07-09T00:08:13.817Z,1.40
2018-07-09T00:08:36.981Z,1.45
2018-07-09T00:09:00.153Z,1.37
2018-07-09T00:09:23.305Z,1.40
2018-07-09T00:09:46.445Z,1.30
2018-07-09T00:10:09.597Z,1.40
2018-07-09T00:10:44.356Z,1.25
2018-07-09T00:11:08.425Z,1.40
2018-07-09T00:11:31.572Z,1.40
2018-07-09T00:11:54.717Z,1.50
2018-07-09T00:12:17.884Z,1.40
2018-07-09T00:12:41.020Z,1.45
2018-07-09T00:13:04.345Z,1.37
2018-07-09T00:13:28.107Z,1.30
2018-07-09T00:13:51.268Z,1.20
2018-07-09T00:14:14.423Z,1.40
2018-07-09T00:14:37.584Z,1.47
2018-07-09T00:15:00.741Z,1.32
2018-07-09T00:15:24.143Z,1.30
2018-07-09T00:15:47.295Z,1.37
2018-07-09T00:16:10.453Z,1.40
2018-07-09T00:16:33.700Z,1.47
2018-07-09T00:16:56.846Z,1.40
2018-07-09T00:17:19.997Z,1.40
2018-07-09T00:17:43.148Z,1.40
2018-07-09T00:18:06.321Z,1.30
2018-07-09T00:18:29.697Z,1.30
2018-07-09T00:18:52.864Z,1.40
2018-07-09T00:19:16.104Z,1.37
2018-07-09T00:19:39.256Z,1.40
2018-07-09T00:20:02.404Z,1.40
2018-07-09T00:20:25.548Z,1.37
2018-07-09T00:20:48.700Z,1.30
2018-07-09T00:21:11.845Z,1.40
2018-07-09T00:21:34.988Z,1.30
2018-07-09T00:21:58.146Z,1.40
2018-07-09T00:22:21.283Z,1.25
2018-07-09T00:22:44.438Z,1.40
2018-07-09T00:23:07.569Z,1.27
2018-07-09T00:23:30.728Z,1.40
2018-07-09T00:23:53.894Z,1.30
2018-07-09T00:24:17.136Z,1.40
2018-07-09T00:24:40.284Z,1.30
2018-07-09T00:25:03.460Z,1.22
2018-07-09T00:25:26.616Z,1.27
2018-07-09T00:25:50.500Z,1.40
2018-07-09T00:26:13.651Z,1.32
2018-07-09T00:26:36.796Z,1.40
2018-07-09T00:26:59.948Z,1.40
2018-07-09T00:27:23.099Z,1.42
2018-07-09T00:27:46.235Z,1.47
2018-07-09T00:28:09.385Z,1.37
2018-07-09T00:28:32.544Z,1.40
2018-07-09T00:28:55.687Z,1.35
2018-07-09T00:29:19.280Z,1.22
2018-07-09T00:29:42.453Z,1.50
2018-07-09T00:30:05.596Z,1.40
2018-07-09T00:30:28.740Z,1.40
2018-07-09T00:30:51.892Z,1.20
2018-07-09T00:31:15.048Z,1.60
2018-07-09T00:31:38.256Z,1.42
2018-07-09T00:32:01.398Z,1.50
2018-07-09T00:32:24.612Z,1.30
2018-07-09T00:32:47.736Z,1.30
2018-07-09T00:33:10.892Z,1.17
2018-07-09T00:33:34.133Z,1.40
2018-07-09T00:33:57.260Z,1.10
2018-07-09T00:34:20.445Z,1.30
2018-07-09T00:34:43.589Z,1.20
2018-07-09T00:35:06.728Z,1.37
2018-07-09T00:35:29.880Z,1.30
2018-07-09T00:35:53.024Z,1.30
2018-07-09T00:36:16.171Z,1.30
2018-07-09T00:36:39.308Z,1.30
2018-07-09T00:37:02.460Z,1.50
2018-07-09T00:37:25.622Z,1.20
2018-07-09T00:37:48.786Z,1.40
2018-07-09T00:38:11.940Z,1.30
2018-07-09T00:38:35.081Z,1.22
2018-07-09T00:38:58.232Z,1.30
2018-07-09T00:39:21.456Z,1.27
2018-07-09T00:39:44.593Z,1.30
2018-07-09T00:40:07.745Z,1.30
2018-07-09T00:40:30.992Z,1.30
2018-07-09T00:40:54.157Z,1.20
2018-07-09T00:41:17.318Z,1.30
2018-07-09T00:41:40.457Z,1.30
2018-07-09T00:42:03.619Z,1.20
2018-07-09T00:42:26.848Z,1.50
2018-07-09T00:42:50.936Z,1.47
2018-07-09T00:43:13.918Z,1.52
2018-07-09T00:43:37.076Z,1.40
2018-07-09T00:44:00.224Z,1.37
2018-07-09T00:44:23.565Z,1.20
2018-07-09T00:44:46.720Z,1.40
2018-07-09T00:45:09.888Z,1.30
2018-07-09T00:45:33.030Z,1.20
2018-07-09T00:45:56.177Z,1.12
2018-07-09T00:46:19.329Z,1.30
2018-07-09T00:46:42.473Z,1.20
2018-07-09T00:47:05.649Z,1.20
2018-07-09T00:47:28.808Z,1.25
2018-07-09T00:47:51.964Z,1.40
2018-07-09T00:48:15.194Z,1.40
2018-07-09T00:48:38.342Z,1.35
2018-07-09T00:49:01.742Z,1.30
2018-07-09T00:49:25.072Z,1.30
2018-07-09T00:49:48.235Z,1.50
2018-07-09T00:50:11.464Z,1.52
2018-07-09T00:50:34.620Z,1.37
2018-07-09T00:50:57.792Z,1.35
2018-07-09T00:51:20.909Z,1.20
2018-07-09T00:51:44.056Z,1.20
2018-07-09T00:52:07.212Z,1.20
2018-07-09T00:52:30.360Z,1.25
2018-07-09T00:52:53.536Z,1.50
2018-07-09T00:53:16.684Z,1.40
2018-07-09T00:53:39.828Z,1.22
2018-07-09T00:54:02.996Z,1.40
2018-07-09T00:54:26.396Z,1.30
2018-07-09T00:54:49.693Z,1.30
2018-07-09T00:55:12.852Z,1.20
2018-07-09T00:55:36.005Z,1.20
2018-07-09T00:55:59.160Z,1.40
2018-07-09T00:56:22.309Z,1.22
2018-07-09T00:56:45.596Z,1.30
2018-07-09T00:57:08.756Z,1.30
2018-07-09T00:57:31.912Z,1.40
2018-07-09T00:57:55.061Z,1.30
2018-07-09T00:58:18.220Z,1.22
2018-07-09T00:58:41.367Z,1.50
2018-07-09T00:59:04.516Z,1.30
2018-07-09T00:59:27.684Z,1.45
2018-07-09T00:59:51.468Z,1.40
2018-07-09T01:00:14.619Z,1.20
2018-07-09T01:00:37.761Z,1.30
2018-07-09T01:01:00.924Z,1.30
2018-07-09T01:01:24.119Z,1.30
2018-07-09T01:01:47.273Z,1.30
2018-07-09T01:02:10.432Z,1.20
2018-07-09T01:02:33.572Z,1.20
2018-07-09T01:02:56.832Z,1.10
2018-07-09T01:03:20.182Z,1.42
2018-07-09T01:03:43.327Z,1.30
2018-07-09T01:04:06.519Z,1.40
2018-07-09T01:04:29.715Z,1.32
2018-07-09T01:04:52.864Z,1.25
2018-07-09T01:05:16.032Z,1.35
2018-07-09T01:05:39.178Z,1.20
2018-07-09T01:06:02.357Z,1.20
2018-07-09T01:06:25.500Z,1.20
2018-07-09T01:06:48.660Z,1.32
2018-07-09T01:07:11.820Z,1.30
2018-07-09T01:07:35.154Z,1.20
2018-07-09T01:07:58.296Z,1.20
2018-07-09T01:08:21.471Z,1.25
2018-07-09T01:08:44.759Z,1.10
2018-07-09T01:09:07.903Z,1.10
2018-07-09T01:09:31.060Z,1.30
2018-07-09T01:09:54.208Z,1.30
2018-07-09T01:10:18.205Z,1.10
2018-07-09T01:10:52.912Z,1.20
2018-07-09T01:11:27.441Z,1.40
2018-07-09T01:12:00.884Z,1.30
2018-07-09T01:12:24.028Z,1.25
2018-07-09T01:12:47.187Z,1.20
2018-07-09T01:13:10.428Z,1.20
2018-07-09T01:13:44.299Z,1.20
2018-07-09T01:14:07.452Z,1.10
2018-07-09T01:14:30.607Z,1.12
2018-07-09T01:14:53.773Z,1.20
2018-07-09T01:15:16.936Z,1.22
2018-07-09T01:15:40.089Z,1.30
2018-07-09T01:16:03.224Z,1.30
2018-07-09T01:16:26.481Z,1.30
2018-07-09T01:16:49.629Z,1.15
2018-07-09T01:17:12.779Z,1.20
2018-07-09T01:17:35.935Z,1.00
2018-07-09T01:17:59.104Z,1.10
2018-07-09T01:18:22.290Z,1.27
2018-07-09T01:18:45.421Z,1.30
2018-07-09T01:19:08.585Z,1.20
2018-07-09T01:19:31.751Z,1.20
2018-07-09T01:19:55.132Z,1.32
2018-07-09T01:20:18.287Z,1.40
2018-07-09T01:20:41.437Z,1.20
2018-07-09T01:21:05.048Z,1.20
2018-07-09T01:21:28.195Z,1.20
2018-07-09T01:21:51.349Z,1.12
2018-07-09T01:22:14.516Z,1.10
2018-07-09T01:22:37.669Z,1.10
2018-07-09T01:23:00.921Z,1.37
2018-07-09T01:23:24.066Z,1.20
2018-07-09T01:23:47.226Z,1.30
2018-07-09T01:24:10.433Z,1.30
2018-07-09T01:24:33.585Z,1.20
2018-07-09T01:24:56.735Z,1.20
2018-07-09T01:25:19.882Z,1.20
2018-07-09T01:25:43.044Z,1.17
2018-07-09T01:26:06.443Z,1.10
2018-07-09T01:26:30.165Z,1.30
2018-07-09T01:26:53.300Z,1.30
2018-07-09T01:27:16.556Z,1.40
2018-07-09T01:27:39.704Z,1.20
2018-07-09T01:28:02.950Z,1.20
2018-07-09T01:28:26.068Z,1.10
2018-07-09T01:28:49.245Z,1.10
2018-07-09T01:29:12.380Z,1.20
2018-07-09T01:29:35.539Z,1.22
2018-07-09T01:30:06.140Z,1.10
2018-07-09T01:30:34.795Z,1.20
2018-07-09T01:30:57.948Z,1.30
2018-07-09T01:31:21.165Z,1.10
2018-07-09T01:31:44.300Z,1.17
2018-07-09T01:32:07.452Z,1.30
2018-07-09T01:32:30.638Z,1.47
2018-07-09T01:32:53.784Z,1.20
2018-07-09T01:33:16.924Z,1.10
2018-07-09T01:33:40.109Z,1.20
2018-07-09T01:34:03.272Z,1.30
2018-07-09T01:34:26.424Z,1.22
2018-07-09T01:34:49.572Z,1.10
2018-07-09T01:35:13.536Z,1.15
2018-07-09T01:35:36.964Z,1.10
2018-07-09T01:36:00.116Z,1.20
2018-07-09T01:36:23.324Z,1.20
2018-07-09T01:36:46.468Z,1.20
2018-07-09T01:37:09.620Z,1.20
2018-07-09T01:37:32.761Z,1.30
2018-07-09T01:37:55.932Z,1.27
2018-07-09T01:38:19.173Z,1.30
2018-07-09T01:38:42.320Z,1.22
2018-07-09T01:39:05.481Z,1.00
2018-07-09T01:39:28.628Z,1.22
2018-07-09T01:39:51.796Z,1.30
2018-07-09T01:40:14.943Z,1.12
2018-07-09T01:40:38.097Z,1.20
2018-07-09T01:41:01.269Z,1.10
2018-07-09T01:41:24.433Z,1.12
2018-07-09T01:41:47.813Z,1.10
2018-07-09T01:42:11.032Z,1.30
2018-07-09T01:42:34.203Z,1.07
2018-07-09T01:42:57.368Z,1.20
2018-07-09T01:43:20.522Z,1.10
2018-07-09T01:43:43.664Z,1.20
2018-07-09T01:44:06.822Z,1.30
2018-07-09T01:44:30.036Z,1.00
2018-07-09T01:44:53.205Z,1.22
2018-07-09T01:45:16.349Z,1.30
2018-07-09T01:45:39.500Z,1.35
2018-07-09T01:46:02.650Z,1.15
2018-07-09T01:46:25.795Z,1.20
2018-07-09T01:46:48.964Z,1.30
2018-07-09T01:47:12.165Z,1.30
2018-07-09T01:47:35.312Z,1.20
2018-07-09T01:47:58.461Z,1.40
2018-07-09T01:48:21.723Z,1.30
2018-07-09T01:48:44.888Z,1.20
2018-07-09T01:49:08.060Z,1.20
2018-07-09T01:49:31.204Z,1.22
2018-07-09T01:49:54.340Z,1.30
2018-07-09T01:50:17.516Z,1.20
2018-07-09T01:50:40.676Z,1.20
2018-07-09T01:51:03.824Z,1.20
2018-07-09T01:51:26.972Z,1.12
2018-07-09T01:51:50.124Z,1.20
2018-07-09T01:52:13.276Z,1.20
2018-07-09T01:52:36.445Z,1.27
2018-07-09T01:52:59.600Z,1.10
2018-07-09T01:53:22.792Z,1.10
2018-07-09T01:53:45.936Z,1.20
2018-07-09T01:54:09.148Z,1.20
2018-07-09T01:54:32.304Z,1.20
2018-07-09T01:54:55.496Z,1.10
2018-07-09T01:55:18.652Z,1.10
2018-07-09T01:55:41.792Z,1.17
2018-07-09T01:56:05.104Z,1.20
2018-07-09T01:56:28.299Z,1.20
2018-07-09T01:56:51.448Z,1.20
2018-07-09T01:57:14.701Z,1.00
2018-07-09T01:57:37.857Z,1.30
2018-07-09T01:58:01.018Z,1.10
2018-07-09T01:58:24.288Z,1.17
2018-07-09T01:58:47.443Z,1.00
2018-07-09T01:59:10.604Z,1.12
2018-07-09T01:59:33.772Z,1.27
2018-07-09T01:59:56.916Z,1.20
2018-07-09T02:00:20.077Z,1.12
2018-07-09T02:00:43.215Z,1.15
2018-07-09T02:01:06.496Z,1.20
2018-07-09T02:01:29.656Z,1.20
2018-07-09T02:01:52.801Z,1.10
2018-07-09T02:02:15.956Z,1.20
2018-07-09T02:02:39.104Z,1.10
2018-07-09T02:03:02.276Z,1.17
2018-07-09T02:03:25.436Z,1.30
2018-07-09T02:03:48.576Z,1.20
2018-07-09T02:04:11.747Z,1.20
2018-07-09T02:04:34.928Z,1.30
2018-07-09T02:04:58.089Z,1.10
2018-07-09T02:05:21.360Z,1.10
2018-07-09T02:05:44.502Z,1.30
2018-07-09T02:06:07.687Z,1.12
2018-07-09T02:06:30.832Z,1.10
2018-07-09T02:06:54.016Z,1.20
2018-07-09T02:07:17.176Z,1.30
2018-07-09T02:07:40.328Z,1.20
2018-07-09T02:08:03.468Z,1.20
2018-07-09T02:08:26.605Z,1.30
2018-07-09T02:08:49.752Z,1.20
2018-07-09T02:09:12.913Z,1.15
2018-07-09T02:09:36.061Z,1.15
2018-07-09T02:09:59.216Z,1.07
2018-07-09T02:10:22.658Z,1.20
2018-07-09T02:10:45.808Z,1.20
2018-07-09T02:11:09.022Z,1.20
2018-07-09T02:11:32.172Z,1.10
2018-07-09T02:11:55.321Z,1.20
2018-07-09T02:12:18.492Z,1.20
2018-07-09T02:12:41.707Z,1.20
2018-07-09T02:13:05.364Z,1.10
2018-07-09T02:13:28.596Z,1.20
2018-07-09T02:13:52.068Z,1.10
2018-07-09T02:14:15.215Z,1.10
2018-07-09T02:14:38.404Z,1.10
2018-07-09T02:15:01.553Z,1.10
2018-07-09T02:15:24.708Z,1.10
2018-07-09T02:15:47.845Z,1.07
2018-07-09T02:16:11.069Z,1.20
2018-07-09T02:16:34.377Z,1.02
2018-07-09T02:16:57.632Z,1.17
2018-07-09T02:17:20.822Z,1.10
2018-07-09T02:17:43.949Z,1.10
2018-07-09T02:18:07.696Z,1.10
2018-07-09T02:18:30.890Z,1.20
2018-07-09T02:18:54.052Z,1.20
2018-07-09T02:19:17.196Z,1.10
2018-07-09T02:19:40.356Z,1.10
2018-07-09T02:20:03.544Z,1.10
2018-07-09T02:20:26.745Z,1.20
2018-07-09T02:20:49.891Z,1.17
2018-07-09T02:21:13.031Z,1.15
2018-07-09T02:21:36.180Z,0.90
2018-07-09T02:21:59.332Z,1.10
2018-07-09T02:22:22.589Z,1.05
2018-07-09T02:22:45.735Z,1.10
2018-07-09T02:23:08.882Z,1.15
2018-07-09T02:23:32.034Z,1.30
2018-07-09T02:23:55.432Z,1.10
2018-07-09T02:24:18.593Z,1.10
2018-07-09T02:24:41.751Z,1.12
2018-07-09T02:25:04.980Z,1.00
2018-07-09T02:25:28.140Z,1.00
2018-07-09T02:25:51.332Z,1.10
2018-07-09T02:26:14.476Z,1.00
2018-07-09T02:26:37.619Z,1.10
2018-07-09T02:27:00.772Z,1.20
2018-07-09T02:27:23.979Z,1.12
2018-07-09T02:27:47.152Z,1.02
2018-07-09T02:28:10.311Z,1.20
2018-07-09T02:28:33.454Z,1.17
2018-07-09T02:28:56.596Z,1.15
2018-07-09T02:29:19.742Z,1.15
2018-07-09T02:29:42.895Z,1.20
2018-07-09T02:30:06.065Z,1.10
2018-07-09T02:30:29.241Z,1.10
2018-07-09T02:30:52.393Z,1.10
2018-07-09T02:31:15.569Z,1.10
2018-07-09T02:31:38.720Z,1.15
2018-07-09T02:32:01.895Z,1.10
2018-07-09T02:32:25.034Z,1.10
2018-07-09T02:32:48.328Z,1.00
2018-07-09T02:33:11.480Z,1.10
2018-07-09T02:33:34.642Z,1.20
2018-07-09T02:33:57.789Z,1.10
2018-07-09T02:34:20.975Z,1.02
2018-07-09T02:34:44.112Z,1.12
2018-07-09T02:35:07.257Z,1.20
2018-07-09T02:35:30.464Z,1.20
2018-07-09T02:35:53.608Z,1.10
2018-07-09T02:36:16.756Z,1.30
2018-07-09T02:36:39.917Z,1.00
2018-07-09T02:37:03.045Z,1.07
2018-07-09T02:37:26.477Z,1.00
2018-07-09T02:37:49.621Z,1.10
2018-07-09T02:38:12.878Z,1.17
2018-07-09T02:38:36.020Z,1.10
2018-07-09T02:38:59.189Z,1.10
2018-07-09T02:39:22.576Z,1.12
2018-07-09T02:39:45.720Z,1.20
2018-07-09T02:40:08.868Z,1.20
2018-07-09T02:40:32.041Z,1.30
2018-07-09T02:40:55.192Z,1.12
2018-07-09T02:41:18.378Z,1.20
2018-07-09T02:41:41.517Z,1.20
2018-07-09T02:42:04.682Z,1.20
2018-07-09T02:42:27.916Z,1.10
2018-07-09T02:42:51.070Z,1.00
2018-07-09T02:43:14.220Z,1.20
2018-07-09T02:43:37.364Z,1.20
2018-07-09T02:44:00.516Z,1.12
2018-07-09T02:44:23.900Z,1.10
2018-07-09T02:44:46.796Z,1.12
2018-07-09T02:45:09.946Z,1.00
2018-07-09T02:45:33.108Z,1.10
2018-07-09T02:45:56.334Z,1.22
2018-07-09T02:46:19.500Z,1.10
2018-07-09T02:46:42.704Z,1.00
2018-07-09T02:47:05.860Z,1.10
2018-07-09T02:47:29.014Z,1.10
2018-07-09T02:47:52.200Z,0.90
2018-07-09T02:48:15.359Z,1.00
2018-07-09T02:48:38.526Z,1.12
2018-07-09T02:49:01.731Z,1.20
2018-07-09T02:49:24.832Z,1.20
2018-07-09T02:49:48.141Z,1.10
2018-07-09T02:50:11.845Z,1.07
2018-07-09T02:50:35.266Z,1.00
2018-07-09T02:50:58.411Z,1.00
2018-07-09T02:51:21.681Z,1.00
2018-07-09T02:51:44.821Z,1.10
2018-07-09T02:52:07.988Z,1.10
2018-07-09T02:52:31.159Z,1.20
2018-07-09T02:52:54.297Z,1.20
2018-07-09T02:53:17.447Z,1.10
2018-07-09T02:53:40.588Z,1.15
2018-07-09T02:54:04.509Z,0.93
2018-07-09T02:54:27.644Z,1.00
2018-07-09T02:54:50.859Z,1.27
2018-07-09T02:55:13.956Z,1.20
2018-07-09T02:55:37.124Z,0.98
2018-07-09T02:56:00.264Z,1.00
2018-07-09T02:56:23.504Z,0.90
2018-07-09T02:56:46.820Z,1.00
2018-07-09T02:57:09.989Z,1.10
2018-07-09T02:57:33.120Z,1.17
2018-07-09T02:57:56.264Z,1.15
2018-07-09T02:58:19.415Z,1.10
2018-07-09T02:58:42.577Z,1.02
2018-07-09T02:59:05.753Z,1.10
2018-07-09T02:59:28.896Z,1.00
2018-07-09T02:59:52.037Z,1.02
2018-07-09T03:00:15.320Z,1.27
2018-07-09T03:00:38.585Z,1.02
2018-07-09T03:01:01.488Z,1.10
2018-07-09T03:01:24.673Z,1.02
2018-07-09T03:01:47.952Z,1.00
2018-07-09T03:02:11.124Z,1.10
2018-07-09T03:02:34.268Z,1.10
2018-07-09T03:02:57.401Z,1.17
2018-07-09T03:03:20.554Z,1.10
2018-07-09T03:03:43.696Z,1.10
2018-07-09T03:04:06.880Z,1.20
2018-07-09T03:04:30.215Z,0.95
2018-07-09T03:04:53.362Z,0.90
2018-07-09T03:05:16.497Z,1.10
2018-07-09T03:05:39.672Z,1.17
2018-07-09T03:06:02.846Z,1.00
2018-07-09T03:06:26.092Z,1.10
2018-07-09T03:06:49.262Z,1.10
2018-07-09T03:07:12.383Z,1.02
2018-07-09T03:07:35.549Z,1.15
2018-07-09T03:07:58.704Z,1.10
2018-07-09T03:08:21.849Z,1.07
2018-07-09T03:08:45.081Z,1.10
2018-07-09T03:09:08.637Z,1.10
2018-07-09T03:09:31.768Z,1.10
2018-07-09T03:09:54.928Z,0.90
2018-07-09T03:10:18.064Z,1.10
2018-07-09T03:10:41.513Z,1.00
2018-07-09T03:11:04.708Z,1.10
2018-07-09T03:11:27.893Z,1.10
2018-07-09T03:11:51.467Z,0.90
2018-07-09T03:12:14.593Z,0.90
2018-07-09T03:12:37.495Z,1.00
2018-07-09T03:13:00.644Z,1.00
2018-07-09T03:13:23.780Z,1.10
2018-07-09T03:13:46.932Z,1.00
2018-07-09T03:14:10.094Z,1.05
2018-07-09T03:14:33.241Z,0.95
2018-07-09T03:14:56.394Z,1.10
2018-07-09T03:15:19.541Z,1.20
2018-07-09T03:15:42.688Z,1.10
2018-07-09T03:16:06.020Z,1.05
2018-07-09T03:16:29.160Z,1.20
2018-07-09T03:16:52.317Z,1.20
2018-07-09T03:17:15.474Z,1.10
2018-07-09T03:17:38.648Z,1.20
2018-07-09T03:18:01.841Z,1.00
2018-07-09T03:18:25.113Z,1.10
2018-07-09T03:18:48.369Z,1.10
2018-07-09T03:19:11.570Z,1.20
2018-07-09T03:19:34.788Z,1.00
2018-07-09T03:19:57.929Z,1.00
2018-07-09T03:20:21.081Z,0.98
2018-07-09T03:20:44.489Z,1.05
2018-07-09T03:21:07.639Z,1.00
2018-07-09T03:21:30.788Z,1.00
2018-07-09T03:21:53.945Z,0.98
2018-07-09T03:22:17.085Z,1.00
2018-07-09T03:22:40.238Z,1.00
2018-07-09T03:23:03.395Z,1.00
2018-07-09T03:23:26.549Z,1.10
2018-07-09T03:23:49.700Z,1.00
2018-07-09T03:24:12.845Z,1.10
2018-07-09T03:24:36.004Z,1.07
2018-07-09T03:24:59.169Z,1.10
2018-07-09T03:25:22.384Z,0.98
2018-07-09T03:25:45.612Z,1.00
2018-07-09T03:26:08.760Z,1.00
2018-07-09T03:26:31.915Z,0.93
2018-07-09T03:26:54.827Z,0.98
2018-07-09T03:27:17.981Z,1.12
2018-07-09T03:27:41.168Z,1.07
2018-07-09T03:28:04.308Z,1.17
2018-07-09T03:28:27.447Z,1.25
2018-07-09T03:28:50.588Z,1.00
2018-07-09T03:29:13.752Z,1.00
2018-07-09T03:29:37.524Z,1.05
2018-07-09T03:30:00.679Z,1.02
2018-07-09T03:30:24.828Z,1.00
2018-07-09T03:30:47.988Z,1.10
2018-07-09T03:31:11.214Z,1.07
2018-07-09T03:31:34.365Z,1.10
2018-07-09T03:31:57.537Z,1.00
2018-07-09T03:32:20.923Z,1.10
2018-07-09T03:32:44.113Z,1.10
2018-07-09T03:33:07.270Z,1.10
2018-07-09T03:33:30.431Z,1.20
2018-07-09T03:33:53.580Z,0.98
2018-07-09T03:34:16.728Z,1.00
2018-07-09T03:34:39.908Z,1.00
2018-07-09T03:35:03.060Z,1.10
2018-07-09T03:35:26.225Z,1.10
2018-07-09T03:35:49.405Z,1.17
2018-07-09T03:36:12.556Z,1.12
2018-07-09T03:36:35.692Z,1.00
2018-07-09T03:36:58.832Z,1.00
2018-07-09T03:37:22.137Z,0.98
2018-07-09T03:37:45.292Z,1.10
2018-07-09T03:38:08.215Z,1.10
2018-07-09T03:38:31.136Z,1.10
2018-07-09T03:38:54.285Z,1.10
2018-07-09T03:39:17.432Z,1.12
2018-07-09T03:39:40.573Z,1.02
2018-07-09T03:40:03.763Z,1.07
2018-07-09T03:40:26.920Z,1.02
2018-07-09T03:40:50.072Z,1.07
2018-07-09T03:41:13.224Z,1.10
2018-07-09T03:41:36.369Z,1.20
2018-07-09T03:41:59.527Z,1.10
2018-07-09T03:42:22.688Z,1.20
2018-07-09T03:42:45.836Z,1.10
2018-07-09T03:43:08.987Z,1.00
2018-07-09T03:43:32.156Z,1.00
2018-07-09T03:43:55.320Z,1.05
2018-07-09T03:44:18.483Z,0.93
2018-07-09T03:44:41.637Z,1.10
2018-07-09T03:45:04.812Z,1.10
2018-07-09T03:45:27.951Z,1.10
2018-07-09T03:45:51.264Z,1.10
2018-07-09T03:46:14.399Z,1.10
2018-07-09T03:46:37.553Z,1.07
2018-07-09T03:47:00.707Z,1.00
2018-07-09T03:47:23.847Z,1.00
2018-07-09T03:47:47.004Z,1.10
2018-07-09T03:48:10.160Z,1.05
2018-07-09T03:48:33.333Z,1.05
2018-07-09T03:48:56.488Z,1.00
2018-07-09T03:49:19.693Z,1.00
2018-07-09T03:49:42.836Z,1.00
2018-07-09T03:50:06.012Z,1.20
2018-07-09T03:50:28.920Z,1.20
2018-07-09T03:50:52.089Z,1.20
2018-07-09T03:51:15.234Z,1.12
2018-07-09T03:51:38.376Z,1.02
2018-07-09T03:52:01.525Z,0.98
2018-07-09T03:52:24.684Z,1.00
2018-07-09T03:52:47.832Z,1.00
2018-07-09T03:53:10.987Z,1.17
2018-07-09T03:53:34.148Z,1.00
2018-07-09T03:53:57.284Z,1.00
2018-07-09T03:54:20.453Z,0.93
2018-07-09T03:54:43.604Z,1.10
2018-07-09T03:55:06.766Z,1.10
2018-07-09T03:55:30.077Z,1.10
2018-07-09T03:55:53.247Z,1.12
2018-07-09T03:56:16.406Z,1.10
2018-07-09T03:56:39.560Z,1.07
2018-07-09T03:57:02.704Z,1.10
2018-07-09T03:57:25.836Z,1.20
2018-07-09T03:57:48.996Z,1.20
2018-07-09T03:58:12.153Z,1.20
2018-07-09T03:58:35.462Z,1.10
2018-07-09T03:58:58.628Z,1.10
2018-07-09T03:59:21.808Z,1.00
2018-07-09T03:59:45.109Z,1.02
2018-07-09T04:00:08.256Z,1.10
2018-07-09T04:00:31.420Z,1.00
2018-07-09T04:00:54.556Z,0.90
2018-07-09T04:01:17.721Z,1.10
2018-07-09T04:01:40.772Z,1.00
2018-07-09T04:02:03.941Z,1.00
2018-07-09T04:02:27.081Z,0.98
2018-07-09T04:02:50.232Z,1.00
2018-07-09T04:03:13.368Z,1.00
2018-07-09T04:03:36.527Z,1.02
2018-07-09T04:03:59.687Z,1.00
2018-07-09T04:04:22.860Z,0.95
2018-07-09T04:04:46.013Z,1.12
2018-07-09T04:05:09.141Z,1.02
2018-07-09T04:05:32.348Z,1.10
2018-07-09T04:05:55.567Z,1.10
2018-07-09T04:06:18.712Z,1.10
2018-07-09T04:06:41.857Z,1.05
2018-07-09T04:07:04.996Z,1.00
2018-07-09T04:07:28.148Z,1.10
2018-07-09T04:07:51.307Z,1.10
2018-07-09T04:08:14.444Z,1.00
2018-07-09T04:08:37.600Z,0.90
2018-07-09T04:09:00.748Z,1.02
2018-07-09T04:09:23.899Z,1.00
2018-07-09T04:09:47.049Z,1.07
2018-07-09T04:10:10.216Z,1.00
2018-07-09T04:10:33.377Z,1.10
2018-07-09T04:10:56.557Z,1.10
2018-07-09T04:11:19.689Z,1.00
2018-07-09T04:11:42.638Z,1.00
2018-07-09T04:12:06.405Z,1.00
2018-07-09T04:12:29.333Z,1.00
2018-07-09T04:12:52.480Z,1.02
2018-07-09T04:13:15.379Z,1.02
2018-07-09T04:13:38.548Z,1.10
2018-07-09T04:14:01.704Z,1.02
2018-07-09T04:14:24.860Z,1.10
2018-07-09T04:14:48.123Z,1.10
2018-07-09T04:15:11.188Z,1.00
2018-07-09T04:15:34.328Z,0.93
2018-07-09T04:15:57.484Z,1.05
2018-07-09T04:16:21.024Z,1.10
2018-07-09T04:16:44.153Z,1.00
2018-07-09T04:17:07.312Z,1.00
2018-07-09T04:17:30.472Z,1.00
2018-07-09T04:17:53.609Z,1.00
2018-07-09T04:18:16.763Z,1.10
2018-07-09T04:18:39.916Z,1.00
2018-07-09T04:19:03.080Z,1.00
2018-07-09T04:19:26.260Z,1.10
2018-07-09T04:19:49.483Z,1.10
2018-07-09T04:20:12.635Z,1.10
2018-07-09T04:20:35.780Z,1.10
2018-07-09T04:20:58.995Z,0.90
2018-07-09T04:21:22.147Z,1.02
2018-07-09T04:21:45.291Z,1.02
2018-07-09T04:22:08.434Z,1.12
2018-07-09T04:22:31.575Z,1.10
2018-07-09T04:22:54.713Z,1.00
2018-07-09T04:23:17.912Z,1.00
2018-07-09T04:23:41.067Z,1.00
2018-07-09T04:24:04.212Z,1.00
2018-07-09T04:24:27.356Z,1.00
2018-07-09T04:24:50.495Z,1.10
2018-07-09T04:25:13.449Z,1.10
2018-07-09T04:25:36.604Z,1.00
2018-07-09T04:25:59.777Z,1.00
2018-07-09T04:26:23.038Z,0.90
2018-07-09T04:26:46.100Z,0.98
2018-07-09T04:27:09.248Z,1.00
2018-07-09T04:27:32.400Z,1.10
2018-07-09T04:27:55.556Z,1.10
2018-07-09T04:28:18.696Z,1.17
2018-07-09T04:28:41.854Z,1.20
2018-07-09T04:29:05.570Z,1.05
2018-07-09T04:29:28.713Z,1.00
2018-07-09T04:29:51.861Z,1.00
2018-07-09T04:30:15.015Z,0.95
2018-07-09T04:30:38.168Z,1.00
2018-07-09T04:31:01.343Z,0.93
2018-07-09T04:31:24.480Z,1.10
2018-07-09T04:31:47.693Z,1.10
2018-07-09T04:32:10.764Z,1.10
2018-07-09T04:32:33.920Z,0.90
2018-07-09T04:32:57.080Z,0.90
2018-07-09T04:33:20.338Z,1.00
2018-07-09T04:33:43.493Z,1.05
2018-07-09T04:34:06.788Z,1.10
2018-07-09T04:34:29.942Z,1.10
2018-07-09T04:34:53.081Z,1.10
2018-07-09T04:35:16.238Z,1.15
2018-07-09T04:35:39.384Z,1.10
2018-07-09T04:36:02.826Z,1.20
2018-07-09T04:36:25.960Z,1.20
2018-07-09T04:36:49.104Z,1.20
2018-07-09T04:37:13.360Z,1.05
2018-07-09T04:37:36.512Z,0.95
2018-07-09T04:37:59.672Z,1.00
2018-07-09T04:38:22.853Z,1.07
2018-07-09T04:38:46.004Z,1.00
2018-07-09T04:39:09.148Z,1.02
2018-07-09T04:39:32.300Z,1.12
2018-07-09T04:39:55.464Z,1.10
2018-07-09T04:40:18.600Z,1.10
2018-07-09T04:40:41.764Z,1.00
2018-07-09T04:41:04.956Z,1.00
2018-07-09T04:41:28.116Z,1.00
2018-07-09T04:41:51.272Z,0.93
2018-07-09T04:42:14.412Z,1.12
2018-07-09T04:42:37.572Z,1.12
2018-07-09T04:43:00.726Z,1.00
2018-07-09T04:43:23.868Z,0.90
2018-07-09T04:43:47.061Z,1.10
2018-07-09T04:44:10.179Z,1.00
2018-07-09T04:44:33.311Z,1.10
2018-07-09T04:44:56.555Z,1.00
2018-07-09T04:45:19.696Z,1.00
2018-07-09T04:45:42.852Z,1.10
2018-07-09T04:46:06.112Z,1.00
2018-07-09T04:46:29.256Z,1.00
2018-07-09T04:46:52.401Z,1.10
2018-07-09T04:47:15.572Z,0.98
2018-07-09T04:47:38.744Z,1.05
2018-07-09T04:48:01.896Z,1.00
2018-07-09T04:48:25.030Z,1.00
2018-07-09T04:48:48.204Z,1.02
2018-07-09T04:49:11.355Z,1.00
2018-07-09T04:49:34.267Z,1.02
2018-07-09T04:49:57.508Z,1.10
2018-07-09T04:50:20.700Z,0.95
2018-07-09T04:50:43.873Z,0.90
2018-07-09T04:51:07.060Z,0.95
2018-07-09T04:51:30.328Z,1.10
2018-07-09T04:51:53.745Z,1.10
2018-07-09T04:52:16.976Z,0.98
2018-07-09T04:52:40.135Z,1.10
2018-07-09T04:53:03.317Z,1.10
2018-07-09T04:53:26.496Z,1.10
2018-07-09T04:53:49.604Z,1.10
2018-07-09T04:54:12.761Z,1.10
2018-07-09T04:54:35.907Z,0.93
2018-07-09T04:54:59.078Z,0.90
2018-07-09T04:55:22.312Z,1.00
2018-07-09T04:55:45.473Z,1.10
2018-07-09T04:56:08.648Z,1.00
2018-07-09T04:56:31.785Z,0.90
2018-07-09T04:56:55.055Z,1.05
2018-07-09T04:57:18.200Z,1.10
2018-07-09T04:57:41.352Z,1.05
2018-07-09T04:58:04.496Z,1.10
2018-07-09T04:58:27.644Z,1.00
2018-07-09T04:58:50.817Z,1.10
2018-07-09T04:59:13.956Z,1.00
2018-07-09T04:59:37.162Z,1.00
2018-07-09T05:00:00.299Z,1.02
2018-07-09T05:00:23.540Z,1.20
2018-07-09T05:00:46.710Z,0.93
2018-07-09T05:01:09.864Z,1.10
2018-07-09T05:01:33.021Z,1.00
2018-07-09T05:01:56.165Z,1.10
2018-07-09T05:02:19.316Z,1.10
2018-07-09T05:02:42.480Z,1.10
2018-07-09T05:03:05.656Z,1.00
2018-07-09T05:03:28.818Z,1.10
2018-07-09T05:03:51.969Z,1.10
2018-07-09T05:04:15.212Z,1.10
2018-07-09T05:04:38.370Z,1.05
2018-07-09T05:05:01.659Z,1.10
2018-07-09T05:05:24.774Z,1.10
2018-07-09T05:05:47.913Z,1.00
2018-07-09T05:06:11.098Z,0.90
2018-07-09T05:06:34.252Z,1.10
2018-07-09T05:06:57.400Z,1.10
2018-07-09T05:07:20.557Z,0.90
2018-07-09T05:07:43.696Z,1.02
2018-07-09T05:08:06.852Z,1.05
2018-07-09T05:08:30.072Z,1.10
2018-07-09T05:08:53.208Z,1.10
2018-07-09T05:09:16.377Z,1.10
2018-07-09T05:09:39.524Z,1.00